sensor_id;sensor_type;location;lat;lon;timestamp;pressure;altitude;pressure_sealevel;temperature;humidity
55932;BME280;41837;55.700;37.984;2023-02-17T00:01:09;100934.44;;;-10.49;100.00
55932;BME280;41837;55.700;37.984;2023-02-17T00:03:35;100930.00;;;-10.53;100.00
55932;BME280;41837;55.700;37.984;2023-02-17T00:06:06;100926.31;;;-10.58;100.00
55932;BME280;41837;55.700;37.984;2023-02-17T00:08:33;100937.25;;;-10.44;100.00
55932;BME280;41837;55.700;37.984;2023-02-17T00:10:59;100935.03;;;-10.40;100.00
55932;BME280;41837;55.700;37.984;2023-02-17T00:13:26;100933.84;;;-10.32;100.00
55932;BME280;41837;55.700;37.984;2023-02-17T00:15:52;100927.03;;;-10.33;100.00
55932;BME280;41837;55.700;37.984;2023-02-17T00:18:19;100933.09;;;-10.29;100.00
55932;BME280;41837;55.700;37.984;2023-02-17T00:20:45;100921.97;;;-10.33;100.00
55932;BME280;41837;55.700;37.984;2023-02-17T00:23:11;100930.41;;;-10.17;100.00
55932;BME280;41837;55.700;37.984;2023-02-17T00:25:38;100927.03;;;-10.18;100.00
55932;BME280;41837;55.700;37.984;2023-02-17T00:28:05;100928.25;;;-10.11;100.00
55932;BME280;41837;55.700;37.984;2023-02-17T00:30:31;100923.03;;;-10.14;100.00
55932;BME280;41837;55.700;37.984;2023-02-17T00:32:59;100921.06;;;-10.18;100.00
55932;BME280;41837;55.700;37.984;2023-02-17T00:35:25;100915.69;;;-10.24;100.00
55932;BME280;41837;55.700;37.984;2023-02-17T00:37:51;100925.47;;;-10.16;100.00
55932;BME280;41837;55.700;37.984;2023-02-17T00:40:17;100918.06;;;-10.13;100.00
55932;BME280;41837;55.700;37.984;2023-02-17T00:42:44;100924.06;;;-10.10;100.00
55932;BME280;41837;55.700;37.984;2023-02-17T00:45:11;100915.44;;;-10.14;100.00
55932;BME280;41837;55.700;37.984;2023-02-17T00:47:36;100916.75;;;-10.06;100.00
55932;BME280;41837;55.700;37.984;2023-02-17T00:50:04;100918.69;;;-10.02;100.00
55932;BME280;41837;55.700;37.984;2023-02-17T00:52:31;100913.97;;;-9.96;100.00
55932;BME280;41837;55.700;37.984;2023-02-17T00:54:57;100921.56;;;-9.96;100.00
55932;BME280;41837;55.700;37.984;2023-02-17T00:57:23;100915.56;;;-9.98;100.00
55932;BME280;41837;55.700;37.984;2023-02-17T00:59:51;100922.00;;;-9.88;100.00
55932;BME280;41837;55.700;37.984;2023-02-17T01:02:17;100921.47;;;-9.97;100.00
55932;BME280;41837;55.700;37.984;2023-02-17T01:04:43;100915.47;;;-9.99;100.00
55932;BME280;41837;55.700;37.984;2023-02-17T01:07:13;100925.84;;;-9.95;100.00
55932;BME280;41837;55.700;37.984;2023-02-17T01:09:39;100915.97;;;-10.05;100.00
55932;BME280;41837;55.700;37.984;2023-02-17T01:12:06;100925.75;;;-9.96;100.00
55932;BME280;41837;55.700;37.984;2023-02-17T01:14:33;100916.50;;;-9.96;100.00
55932;BME280;41837;55.700;37.984;2023-02-17T01:16:59;100925.34;;;-9.89;100.00
55932;BME280;41837;55.700;37.984;2023-02-17T01:19:27;100915.47;;;-9.84;100.00
55932;BME280;41837;55.700;37.984;2023-02-17T01:21:53;100910.56;;;-9.96;100.00
55932;BME280;41837;55.700;37.984;2023-02-17T01:24:19;100905.69;;;-9.93;100.00
55932;BME280;41837;55.700;37.984;2023-02-17T01:26:45;100919.91;;;-9.95;100.00
55932;BME280;41837;55.700;37.984;2023-02-17T01:29:11;100904.72;;;-9.95;100.00
55932;BME280;41837;55.700;37.984;2023-02-17T01:31:38;100911.78;;;-9.89;100.00
55932;BME280;41837;55.700;37.984;2023-02-17T01:34:05;100918.50;;;-9.90;100.00
55932;BME280;41837;55.700;37.984;2023-02-17T01:36:31;100910.50;;;-9.98;100.00
55932;BME280;41837;55.700;37.984;2023-02-17T01:38:58;100915.22;;;-9.89;100.00
55932;BME280;41837;55.700;37.984;2023-02-17T01:41:25;100911.97;;;-9.86;100.00
55932;BME280;41837;55.700;37.984;2023-02-17T01:44:19;100901.63;;;-9.91;100.00
55932;BME280;41837;55.700;37.984;2023-02-17T01:46:49;100907.72;;;-9.87;100.00
55932;BME280;41837;55.700;37.984;2023-02-17T01:52:00;100891.56;;;-9.89;100.00
55932;BME280;41837;55.700;37.984;2023-02-17T01:54:54;100912.34;;;-9.80;100.00
55932;BME280;41837;55.700;37.984;2023-02-17T01:57:29;100914.88;;;-9.80;100.00
55932;BME280;41837;55.700;37.984;2023-02-17T01:59:57;100914.88;;;-9.80;100.00
55932;BME280;41837;55.700;37.984;2023-02-17T02:02:23;100914.69;;;-9.83;100.00
55932;BME280;41837;55.700;37.984;2023-02-17T02:04:52;100903.78;;;-9.82;100.00
55932;BME280;41837;55.700;37.984;2023-02-17T02:07:25;100917.81;;;-9.72;100.00
55932;BME280;41837;55.700;37.984;2023-02-17T02:09:55;100919.56;;;-9.71;100.00
55932;BME280;41837;55.700;37.984;2023-02-17T02:12:29;100919.22;;;-9.78;100.00
55932;BME280;41837;55.700;37.984;2023-02-17T02:15:01;100924.28;;;-9.78;100.00
55932;BME280;41837;55.700;37.984;2023-02-17T02:17:53;100928.22;;;-9.68;100.00
55932;BME280;41837;55.700;37.984;2023-02-17T02:20:25;100925.88;;;-9.65;100.00
55932;BME280;41837;55.700;37.984;2023-02-17T02:25:56;100924.28;;;-9.63;100.00
55932;BME280;41837;55.700;37.984;2023-02-17T02:34:39;100905.88;;;-9.75;100.00
55932;BME280;41837;55.700;37.984;2023-02-17T02:37:23;100920.97;;;-9.62;100.00
55932;BME280;41837;55.700;37.984;2023-02-17T02:39:52;100916.09;;;-9.59;100.00
55932;BME280;41837;55.700;37.984;2023-02-17T02:42:22;100907.28;;;-9.65;100.00
55932;BME280;41837;55.700;37.984;2023-02-17T02:44:49;100916.69;;;-9.63;100.00
55932;BME280;41837;55.700;37.984;2023-02-17T02:50:01;100925.88;;;-9.65;100.00
55932;BME280;41837;55.700;37.984;2023-02-17T02:52:41;100919.03;;;-9.66;100.00
55932;BME280;41837;55.700;37.984;2023-02-17T03:01:06;100914.78;;;-9.67;100.00
55932;BME280;41837;55.700;37.984;2023-02-17T03:03:46;100916.44;;;-9.67;100.00
55932;BME280;41837;55.700;37.984;2023-02-17T03:06:51;100916.69;;;-9.63;100.00
55932;BME280;41837;55.700;37.984;2023-02-17T03:09:22;100916.78;;;-9.61;100.00
55932;BME280;41837;55.700;37.984;2023-02-17T03:11:49;100914.06;;;-9.64;100.00
55932;BME280;41837;55.700;37.984;2023-02-17T03:14:20;100923.59;;;-9.60;100.00
55932;BME280;41837;55.700;37.984;2023-02-17T03:16:47;100919.41;;;-9.60;100.00
55932;BME280;41837;55.700;37.984;2023-02-17T03:19:14;100914.78;;;-9.67;100.00
55932;BME280;41837;55.700;37.984;2023-02-17T03:22:15;100924.28;;;-9.63;100.00
55932;BME280;41837;55.700;37.984;2023-02-17T03:24:46;100924.75;;;-9.55;100.00
55932;BME280;41837;55.700;37.984;2023-02-17T03:27:12;100919.06;;;-9.51;100.00
55932;BME280;41837;55.700;37.984;2023-02-17T03:29:38;100920.97;;;-9.62;100.00
55932;BME280;41837;55.700;37.984;2023-02-17T03:32:05;100916.25;;;-9.56;100.00
55932;BME280;41837;55.700;37.984;2023-02-17T03:34:31;100904.22;;;-9.60;100.00
55932;BME280;41837;55.700;37.984;2023-02-17T03:36:57;100910.84;;;-9.62;100.00
55932;BME280;41837;55.700;37.984;2023-02-17T03:39:23;100912.09;;;-9.55;100.00
55932;BME280;41837;55.700;37.984;2023-02-17T03:41:49;100909.28;;;-9.60;100.00
55932;BME280;41837;55.700;37.984;2023-02-17T03:44:17;100917.22;;;-9.53;100.00
55932;BME280;41837;55.700;37.984;2023-02-17T03:46:44;100923.50;;;-9.47;100.00
55932;BME280;41837;55.700;37.984;2023-02-17T03:49:10;100921.50;;;-9.52;100.00
55932;BME280;41837;55.700;37.984;2023-02-17T03:51:36;100908.84;;;-9.52;100.00
55932;BME280;41837;55.700;37.984;2023-02-17T03:54:03;100903.94;;;-9.49;100.00
55932;BME280;41837;55.700;37.984;2023-02-17T03:56:30;100920.09;;;-9.47;100.00
55932;BME280;41837;55.700;37.984;2023-02-17T03:58:57;100922.38;;;-9.52;100.00
55932;BME280;41837;55.700;37.984;2023-02-17T04:01:23;100926.22;;;-9.59;100.00
55932;BME280;41837;55.700;37.984;2023-02-17T04:03:49;100923.41;;;-9.63;100.00
55932;BME280;41837;55.700;37.984;2023-02-17T04:06:17;100926.03;;;-9.62;100.00
55932;BME280;41837;55.700;37.984;2023-02-17T04:08:43;100924.00;;;-9.67;100.00
55932;BME280;41837;55.700;37.984;2023-02-17T04:11:09;100929.72;;;-9.57;100.00
55932;BME280;41837;55.700;37.984;2023-02-17T04:13:36;100930.66;;;-9.54;100.00
55932;BME280;41837;55.700;37.984;2023-02-17T04:16:03;100922.88;;;-9.58;100.00
55932;BME280;41837;55.700;37.984;2023-02-17T04:18:30;100924.66;;;-9.57;100.00
55932;BME280;41837;55.700;37.984;2023-02-17T04:20:57;100931.03;;;-9.48;100.00
55932;BME280;41837;55.700;37.984;2023-02-17T04:23:23;100922.13;;;-9.57;100.00
55932;BME280;41837;55.700;37.984;2023-02-17T04:25:50;100935.72;;;-9.54;100.00
55932;BME280;41837;55.700;37.984;2023-02-17T04:28:17;100932.84;;;-9.46;100.00
55932;BME280;41837;55.700;37.984;2023-02-17T04:30:44;100933.66;;;-9.47;100.00
55932;BME280;41837;55.700;37.984;2023-02-17T04:33:11;100938.09;;;-9.43;100.00
55932;BME280;41837;55.700;37.984;2023-02-17T04:35:37;100930.31;;;-9.46;100.00
55932;BME280;41837;55.700;37.984;2023-02-17T04:38:05;100934.84;;;-9.40;100.00
55932;BME280;41837;55.700;37.984;2023-02-17T04:40:31;100925.59;;;-9.40;100.00
55932;BME280;41837;55.700;37.984;2023-02-17T04:42:58;100925.50;;;-9.41;100.00
55932;BME280;41837;55.700;37.984;2023-02-17T04:45:25;100921.03;;;-9.45;100.00
55932;BME280;41837;55.700;37.984;2023-02-17T04:47:51;100909.97;;;-9.47;100.00
55932;BME280;41837;55.700;37.984;2023-02-17T04:50:17;100925.50;;;-9.41;100.00
55932;BME280;41837;55.700;37.984;2023-02-17T04:52:43;100929.72;;;-9.42;100.00
55932;BME280;41837;55.700;37.984;2023-02-17T04:55:10;100927.59;;;-9.34;100.00
55932;BME280;41837;55.700;37.984;2023-02-17T04:57:36;100920.81;;;-9.35;100.00
55932;BME280;41837;55.700;37.984;2023-02-17T05:00:04;100926.63;;;-9.36;100.00
55932;BME280;41837;55.700;37.984;2023-02-17T05:02:30;100912.41;;;-9.34;100.00
55932;BME280;41837;55.700;37.984;2023-02-17T05:04:57;100931.06;;;-9.32;100.00
55932;BME280;41837;55.700;37.984;2023-02-17T05:07:23;100932.19;;;-9.27;100.00
55932;BME280;41837;55.700;37.984;2023-02-17T05:09:49;100929.16;;;-9.21;100.00
55932;BME280;41837;55.700;37.984;2023-02-17T05:12:16;100925.50;;;-9.26;100.00
55932;BME280;41837;55.700;37.984;2023-02-17T05:14:41;100926.19;;;-9.29;100.00
55932;BME280;41837;55.700;37.984;2023-02-17T05:17:08;100928.91;;;-9.26;100.00
55932;BME280;41837;55.700;37.984;2023-02-17T05:19:34;100935.25;;;-9.17;100.00
55932;BME280;41837;55.700;37.984;2023-02-17T05:22:00;100919.97;;;-9.19;100.00
55932;BME280;41837;55.700;37.984;2023-02-17T05:24:27;100915.69;;;-9.20;100.00
55932;BME280;41837;55.700;37.984;2023-02-17T05:26:53;100924.75;;;-9.09;100.00
55932;BME280;41837;55.700;37.984;2023-02-17T05:29:19;100925.41;;;-9.13;100.00
55932;BME280;41837;55.700;37.984;2023-02-17T05:31:45;100933.94;;;-9.11;100.00
55932;BME280;41837;55.700;37.984;2023-02-17T05:34:12;100929.06;;;-9.08;100.00
55932;BME280;41837;55.700;37.984;2023-02-17T05:36:37;100935.94;;;-9.05;100.00
55932;BME280;41837;55.700;37.984;2023-02-17T05:39:04;100934.97;;;-9.07;100.00
55932;BME280;41837;55.700;37.984;2023-02-17T05:41:30;100933.75;;;-8.99;100.00
55932;BME280;41837;55.700;37.984;2023-02-17T05:43:56;100924.13;;;-9.05;100.00
55932;BME280;41837;55.700;37.984;2023-02-17T05:46:21;100932.34;;;-8.94;100.00
55932;BME280;41837;55.700;37.984;2023-02-17T05:48:48;100925.41;;;-8.96;100.00
55932;BME280;41837;55.700;37.984;2023-02-17T05:51:14;100933.28;;;-8.92;100.00
55932;BME280;41837;55.700;37.984;2023-02-17T05:53:43;100933.78;;;-8.83;100.00
55932;BME280;41837;55.700;37.984;2023-02-17T05:56:10;100932.91;;;-8.83;100.00
55932;BME280;41837;55.700;37.984;2023-02-17T05:58:36;100940.84;;;-8.77;100.00
55932;BME280;41837;55.700;37.984;2023-02-17T06:01:10;100940.03;;;-8.76;100.00
55932;BME280;41837;55.700;37.984;2023-02-17T06:03:36;100940.50;;;-8.83;100.00
55932;BME280;41837;55.700;37.984;2023-02-17T06:06:03;100943.75;;;-8.86;100.00
55932;BME280;41837;55.700;37.984;2023-02-17T06:08:29;100942.56;;;-8.92;100.00
55932;BME280;41837;55.700;37.984;2023-02-17T06:10:56;100928.50;;;-8.71;100.00
55932;BME280;41837;55.700;37.984;2023-02-17T06:13:22;100940.56;;;-8.67;100.00
55932;BME280;41837;55.700;37.984;2023-02-17T06:15:48;100954.00;;;-8.68;100.00
55932;BME280;41837;55.700;37.984;2023-02-17T06:18:14;100948.03;;;-8.53;100.00
55932;BME280;41837;55.700;37.984;2023-02-17T06:20:40;100942.47;;;-8.46;100.00
55932;BME280;41837;55.700;37.984;2023-02-17T06:23:06;100934.22;;;-8.58;100.00
55932;BME280;41837;55.700;37.984;2023-02-17T06:25:33;100940.34;;;-8.55;100.00
55932;BME280;41837;55.700;37.984;2023-02-17T06:27:59;100945.50;;;-8.53;100.00
55932;BME280;41837;55.700;37.984;2023-02-17T06:30:25;100939.69;;;-8.34;100.00
55932;BME280;41837;55.700;37.984;2023-02-17T06:32:52;100944.91;;;-8.31;100.00
55932;BME280;41837;55.700;37.984;2023-02-17T06:35:18;100939.13;;;-8.29;100.00
55932;BME280;41837;55.700;37.984;2023-02-17T06:37:44;100931.50;;;-8.29;100.00
55932;BME280;41837;55.700;37.984;2023-02-17T06:40:10;100925.41;;;-8.16;100.00
55932;BME280;41837;55.700;37.984;2023-02-17T06:42:37;100929.50;;;-8.01;100.00
55932;BME280;41837;55.700;37.984;2023-02-17T06:45:03;100933.84;;;-7.82;100.00
55932;BME280;41837;55.700;37.984;2023-02-17T06:47:32;100926.13;;;-8.02;100.00
55932;BME280;41837;55.700;37.984;2023-02-17T06:49:58;100930.91;;;-7.74;100.00
55932;BME280;41837;55.700;37.984;2023-02-17T06:52:24;100927.34;;;-7.25;100.00
55932;BME280;41837;55.700;37.984;2023-02-17T06:54:50;100922.25;;;-7.25;100.00
55932;BME280;41837;55.700;37.984;2023-02-17T06:57:17;100926.91;;;-7.34;100.00
55932;BME280;41837;55.700;37.984;2023-02-17T06:59:43;100916.44;;;-7.04;100.00
55932;BME280;41837;55.700;37.984;2023-02-17T07:02:11;100926.69;;;-6.65;100.00
55932;BME280;41837;55.700;37.984;2023-02-17T07:04:41;100910.16;;;-6.38;100.00
55932;BME280;41837;55.700;37.984;2023-02-17T07:07:09;100905.38;;;-6.49;100.00
55932;BME280;41837;55.700;37.984;2023-02-17T07:09:36;100904.78;;;-5.41;100.00
55932;BME280;41837;55.700;37.984;2023-02-17T07:12:04;100895.31;;;-4.08;96.32
55932;BME280;41837;55.700;37.984;2023-02-17T07:14:32;100899.81;;;-3.23;88.35
55932;BME280;41837;55.700;37.984;2023-02-17T07:16:59;100896.66;;;-2.87;81.47
55932;BME280;41837;55.700;37.984;2023-02-17T07:19:25;100893.97;;;-2.91;79.10
55932;BME280;41837;55.700;37.984;2023-02-17T07:21:51;100887.34;;;-2.85;78.74
55932;BME280;41837;55.700;37.984;2023-02-17T07:24:17;100873.03;;;-2.16;75.47
55932;BME280;41837;55.700;37.984;2023-02-17T07:26:43;100867.09;;;-2.15;74.36
55932;BME280;41837;55.700;37.984;2023-02-17T07:29:10;100870.09;;;-1.98;71.83
55932;BME280;41837;55.700;37.984;2023-02-17T07:31:36;100877.75;;;-1.99;70.03
55932;BME280;41837;55.700;37.984;2023-02-17T07:34:03;100884.13;;;-2.17;70.50
55932;BME280;41837;55.700;37.984;2023-02-17T07:36:29;100896.59;;;-3.44;74.36
55932;BME280;41837;55.700;37.984;2023-02-17T07:38:56;100889.38;;;-4.32;79.29
55932;BME280;41837;55.700;37.984;2023-02-17T07:41:24;100885.53;;;-4.20;80.71
55932;BME280;41837;55.700;37.984;2023-02-17T07:43:55;100887.44;;;-4.39;82.86
55932;BME280;41837;55.700;37.984;2023-02-17T07:46:25;100884.19;;;-4.57;85.46
55932;BME280;41837;55.700;37.984;2023-02-17T07:48:51;100872.78;;;-4.44;84.99
55932;BME280;41837;55.700;37.984;2023-02-17T07:51:20;100888.56;;;-4.31;83.55
55932;BME280;41837;55.700;37.984;2023-02-17T07:53:48;100881.88;;;-4.51;84.92
55932;BME280;41837;55.700;37.984;2023-02-17T07:56:16;100889.59;;;-4.72;84.55
55932;BME280;41837;55.700;37.984;2023-02-17T07:58:44;100878.84;;;-4.65;85.93
55932;BME280;41837;55.700;37.984;2023-02-17T08:01:13;100876.69;;;-4.77;84.95
55932;BME280;41837;55.700;37.984;2023-02-17T08:03:40;100874.66;;;-4.85;86.45
55932;BME280;41837;55.700;37.984;2023-02-17T08:06:11;100878.06;;;-5.08;86.68
55932;BME280;41837;55.700;37.984;2023-02-17T08:08:38;100873.53;;;-4.94;85.00
55932;BME280;41837;55.700;37.984;2023-02-17T08:11:23;100871.75;;;-4.95;85.42
55932;BME280;41837;55.700;37.984;2023-02-17T08:14:08;100874.00;;;-5.02;86.68
55932;BME280;41837;55.700;37.984;2023-02-17T08:16:34;100867.47;;;-4.73;86.52
55932;BME280;41837;55.700;37.984;2023-02-17T08:19:00;100877.97;;;-4.88;85.15
55932;BME280;41837;55.700;37.984;2023-02-17T08:21:27;100867.69;;;-4.67;86.34
55932;BME280;41837;55.700;37.984;2023-02-17T08:23:54;100879.25;;;-4.77;85.88
55932;BME280;41837;55.700;37.984;2023-02-17T08:26:20;100874.72;;;-5.07;87.05
55932;BME280;41837;55.700;37.984;2023-02-17T08:28:48;100871.59;;;-5.22;86.61
55932;BME280;41837;55.700;37.984;2023-02-17T08:31:27;100870.44;;;-4.85;86.96
55932;BME280;41837;55.700;37.984;2023-02-17T08:33:55;100870.78;;;-5.21;86.58
55932;BME280;41837;55.700;37.984;2023-02-17T08:36:22;100870.34;;;-5.09;87.27
55932;BME280;41837;55.700;37.984;2023-02-17T08:38:52;100870.91;;;-4.95;86.04
55932;BME280;41837;55.700;37.984;2023-02-17T08:41:21;100866.66;;;-4.95;86.11
55932;BME280;41837;55.700;37.984;2023-02-17T08:43:49;100871.84;;;-5.14;86.75
55932;BME280;41837;55.700;37.984;2023-02-17T08:46:17;100863.78;;;-5.04;87.88
55932;BME280;41837;55.700;37.984;2023-02-17T08:48:44;100856.84;;;-4.84;84.59
55932;BME280;41837;55.700;37.984;2023-02-17T08:51:15;100864.69;;;-4.79;86.38
55932;BME280;41837;55.700;37.984;2023-02-17T08:53:49;100859.97;;;-4.69;87.00
55932;BME280;41837;55.700;37.984;2023-02-17T08:56:16;100860.09;;;-4.65;84.36
55932;BME280;41837;55.700;37.984;2023-02-17T08:58:43;100859.91;;;-4.70;85.18
55932;BME280;41837;55.700;37.984;2023-02-17T09:01:09;100864.09;;;-4.72;84.96
55932;BME280;41837;55.700;37.984;2023-02-17T09:03:36;100870.66;;;-5.01;86.03
55932;BME280;41837;55.700;37.984;2023-02-17T09:06:04;100866.03;;;-4.66;85.86
55932;BME280;41837;55.700;37.984;2023-02-17T09:08:30;100862.44;;;-4.72;86.14
55932;BME280;41837;55.700;37.984;2023-02-17T09:10:57;100859.41;;;-5.29;88.90
55932;BME280;41837;55.700;37.984;2023-02-17T09:13:23;100872.28;;;-5.47;90.76
55932;BME280;41837;55.700;37.984;2023-02-17T09:15:52;100846.06;;;-5.66;92.71
55932;BME280;41837;55.700;37.984;2023-02-17T09:18:20;100851.91;;;-5.47;93.81
55932;BME280;41837;55.700;37.984;2023-02-17T09:20:48;100855.13;;;-5.30;92.60
55932;BME280;41837;55.700;37.984;2023-02-17T09:23:15;100853.34;;;-5.10;92.52
55932;BME280;41837;55.700;37.984;2023-02-17T09:25:41;100847.84;;;-5.21;91.89
55932;BME280;41837;55.700;37.984;2023-02-17T09:28:07;100840.00;;;-5.03;89.80
55932;BME280;41837;55.700;37.984;2023-02-17T09:30:34;100820.53;;;-4.78;86.22
55932;BME280;41837;55.700;37.984;2023-02-17T09:33:01;100843.91;;;-4.90;85.96
55932;BME280;41837;55.700;37.984;2023-02-17T09:35:30;100833.75;;;-4.89;85.31
55932;BME280;41837;55.700;37.984;2023-02-17T09:37:58;100830.41;;;-5.33;87.81
55932;BME280;41837;55.700;37.984;2023-02-17T09:43:11;100814.47;;;-5.27;87.25
55932;BME280;41837;55.700;37.984;2023-02-17T09:45:39;100832.03;;;-4.65;86.47
55932;BME280;41837;55.700;37.984;2023-02-17T09:48:09;100828.66;;;-4.64;85.54
55932;BME280;41837;55.700;37.984;2023-02-17T09:53:26;100821.50;;;-4.97;86.41
55932;BME280;41837;55.700;37.984;2023-02-17T09:55:57;100825.31;;;-4.86;84.84
55932;BME280;41837;55.700;37.984;2023-02-17T10:01:00;100801.38;;;-4.41;84.88
55932;BME280;41837;55.700;37.984;2023-02-17T10:03:50;100819.25;;;-4.41;85.15
55932;BME280;41837;55.700;37.984;2023-02-17T10:06:17;100816.41;;;-4.25;85.61
55932;BME280;41837;55.700;37.984;2023-02-17T10:11:47;100811.66;;;-4.16;82.24
55932;BME280;41837;55.700;37.984;2023-02-17T10:14:32;100804.44;;;-4.27;82.59
55932;BME280;41837;55.700;37.984;2023-02-17T10:17:17;100813.31;;;-4.16;84.14
55932;BME280;41837;55.700;37.984;2023-02-17T10:20:15;100812.69;;;-4.35;85.56
55932;BME280;41837;55.700;37.984;2023-02-17T10:22:42;100817.38;;;-4.21;85.58
55932;BME280;41837;55.700;37.984;2023-02-17T10:25:18;100800.16;;;-4.53;85.52
55932;BME280;41837;55.700;37.984;2023-02-17T10:31:03;100814.75;;;-4.48;82.79
55932;BME280;41837;55.700;37.984;2023-02-17T10:33:42;100799.66;;;-4.91;82.54
55932;BME280;41837;55.700;37.984;2023-02-17T10:41:15;100802.56;;;-4.81;85.29
55932;BME280;41837;55.700;37.984;2023-02-17T10:43:43;100792.38;;;-5.04;86.02
55932;BME280;41837;55.700;37.984;2023-02-17T10:46:14;100793.81;;;-4.88;85.34
55932;BME280;41837;55.700;37.984;2023-02-17T10:48:52;100788.91;;;-5.29;87.89
55932;BME280;41837;55.700;37.984;2023-02-17T10:51:23;100779.34;;;-5.12;88.37
55932;BME280;41837;55.700;37.984;2023-02-17T10:53:56;100790.13;;;-4.48;88.09
55932;BME280;41837;55.700;37.984;2023-02-17T10:56:31;100774.16;;;-4.66;84.23
55932;BME280;41837;55.700;37.984;2023-02-17T10:59:07;100784.56;;;-4.60;86.61
55932;BME280;41837;55.700;37.984;2023-02-17T11:01:37;100783.22;;;-4.75;87.04
55932;BME280;41837;55.700;37.984;2023-02-17T11:04:06;100785.34;;;-4.87;89.85
55932;BME280;41837;55.700;37.984;2023-02-17T11:06:44;100778.47;;;-5.12;90.77
55932;BME280;41837;55.700;37.984;2023-02-17T11:09:22;100749.03;;;-5.27;90.64
55932;BME280;41837;55.700;37.984;2023-02-17T11:12:15;100777.78;;;-5.08;91.78
55932;BME280;41837;55.700;37.984;2023-02-17T11:14:48;100768.84;;;-4.73;92.75
55932;BME280;41837;55.700;37.984;2023-02-17T11:17:25;100771.09;;;-5.04;92.40
55932;BME280;41837;55.700;37.984;2023-02-17T11:19:59;100774.63;;;-5.01;91.41
55932;BME280;41837;55.700;37.984;2023-02-17T11:22:46;100766.84;;;-5.06;93.03
55932;BME280;41837;55.700;37.984;2023-02-17T11:25:26;100762.72;;;-5.02;93.92
55932;BME280;41837;55.700;37.984;2023-02-17T11:27:58;100766.22;;;-4.98;96.19
55932;BME280;41837;55.700;37.984;2023-02-17T11:30:26;100759.31;;;-5.01;94.98
55932;BME280;41837;55.700;37.984;2023-02-17T11:32:54;100763.75;;;-4.97;96.11
55932;BME280;41837;55.700;37.984;2023-02-17T11:37:48;100763.25;;;-5.11;96.52
55932;BME280;41837;55.700;37.984;2023-02-17T11:40:27;100767.31;;;-5.16;97.38
55932;BME280;41837;55.700;37.984;2023-02-17T11:42:59;100763.81;;;-5.40;98.51
55932;BME280;41837;55.700;37.984;2023-02-17T11:51:20;100756.97;;;-5.64;100.00
55932;BME280;41837;55.700;37.984;2023-02-17T11:56:33;100751.66;;;-5.48;100.00
55932;BME280;41837;55.700;37.984;2023-02-17T12:05:09;100750.09;;;-5.67;100.00
55932;BME280;41837;55.700;37.984;2023-02-17T12:10:44;100740.47;;;-5.29;100.00
55932;BME280;41837;55.700;37.984;2023-02-17T12:13:34;100731.44;;;-4.96;94.55
55932;BME280;41837;55.700;37.984;2023-02-17T12:16:17;100735.69;;;-5.21;92.13
55932;BME280;41837;55.700;37.984;2023-02-17T12:19:03;100728.44;;;-5.33;93.78
55932;BME280;41837;55.700;37.984;2023-02-17T12:35:56;100725.69;;;-4.91;91.89
55932;BME280;41837;55.700;37.984;2023-02-17T12:38:30;100728.91;;;-5.43;93.49
55932;BME280;41837;55.700;37.984;2023-02-17T12:44:01;100727.13;;;-5.21;96.41
55932;BME280;41837;55.700;37.984;2023-02-17T12:46:36;100725.56;;;-5.18;95.53
55932;BME280;41837;55.700;37.984;2023-02-17T12:49:19;100736.47;;;-5.22;95.89
55932;BME280;41837;55.700;37.984;2023-02-17T12:51:54;100724.22;;;-5.55;96.40
55932;BME280;41837;55.700;37.984;2023-02-17T12:54:48;100721.41;;;-5.38;98.18
55932;BME280;41837;55.700;37.984;2023-02-17T12:57:14;100724.88;;;-5.36;99.30
55932;BME280;41837;55.700;37.984;2023-02-17T12:59:44;100737.38;;;-5.67;100.00
55932;BME280;41837;55.700;37.984;2023-02-17T13:02:14;100734.38;;;-5.56;100.00
55932;BME280;41837;55.700;37.984;2023-02-17T13:04:42;100743.06;;;-5.72;100.00
55932;BME280;41837;55.700;37.984;2023-02-17T13:09:44;100737.09;;;-5.95;100.00
55932;BME280;41837;55.700;37.984;2023-02-17T13:12:31;100724.03;;;-5.82;100.00
55932;BME280;41837;55.700;37.984;2023-02-17T13:15:25;100731.16;;;-5.73;100.00
55932;BME280;41837;55.700;37.984;2023-02-17T13:18:09;100732.03;;;-5.73;100.00
55932;BME280;41837;55.700;37.984;2023-02-17T13:20:39;100728.09;;;-5.65;100.00
55932;BME280;41837;55.700;37.984;2023-02-17T13:23:11;100715.81;;;-5.52;100.00
55932;BME280;41837;55.700;37.984;2023-02-17T13:25:39;100721.41;;;-5.38;100.00
55932;BME280;41837;55.700;37.984;2023-02-17T13:28:17;100720.63;;;-5.37;99.05
55932;BME280;41837;55.700;37.984;2023-02-17T13:30:45;100714.03;;;-5.55;98.62
55932;BME280;41837;55.700;37.984;2023-02-17T13:35:48;100712.38;;;-5.30;96.32
55932;BME280;41837;55.700;37.984;2023-02-17T13:38:26;100713.66;;;-5.41;97.28
55932;BME280;41837;55.700;37.984;2023-02-17T13:40:58;100712.47;;;-5.51;98.56
55932;BME280;41837;55.700;37.984;2023-02-17T13:43:27;100694.47;;;-5.78;98.83
55932;BME280;41837;55.700;37.984;2023-02-17T13:46:03;100712.28;;;-5.78;99.09
55932;BME280;41837;55.700;37.984;2023-02-17T13:48:31;100705.00;;;-5.69;100.00
55932;BME280;41837;55.700;37.984;2023-02-17T13:51:02;100710.53;;;-5.79;100.00
55932;BME280;41837;55.700;37.984;2023-02-17T13:56:05;100706.69;;;-5.91;100.00
55932;BME280;41837;55.700;37.984;2023-02-17T13:58:36;100708.69;;;-6.06;100.00
55932;BME280;41837;55.700;37.984;2023-02-17T14:01:05;100708.75;;;-6.05;100.00
55932;BME280;41837;55.700;37.984;2023-02-17T14:06:12;100717.53;;;-6.19;100.00
55932;BME280;41837;55.700;37.984;2023-02-17T14:08:46;100706.53;;;-6.39;100.00
55932;BME280;41837;55.700;37.984;2023-02-17T14:11:17;100715.22;;;-6.34;100.00
55932;BME280;41837;55.700;37.984;2023-02-17T14:13:47;100710.88;;;-6.37;100.00